sensor_id;sensor_type;location;lat;lon;timestamp;P1;durP1;ratioP1;P2;durP2;ratioP2
20324;SDS011;10320;49.482;11.256;2024-03-08T00:00:15;26.93;;;19.07;;
20324;SDS011;10320;49.482;11.256;2024-03-08T00:02:43;24.67;;;17.03;;
20324;SDS011;10320;49.482;11.256;2024-03-08T00:05:10;24.73;;;16.70;;
20324;SDS011;10320;49.482;11.256;2024-03-08T00:07:36;23.13;;;17.07;;
20324;SDS011;10320;49.482;11.256;2024-03-08T00:10:06;24.67;;;17.40;;
20324;SDS011;10320;49.482;11.256;2024-03-08T00:12:36;24.53;;;16.93;;
20324;SDS011;10320;49.482;11.256;2024-03-08T00:15:06;23.73;;;16.57;;
20324;SDS011;10320;49.482;11.256;2024-03-08T00:17:32;24.80;;;17.07;;
20324;SDS011;10320;49.482;11.256;2024-03-08T00:19:58;26.70;;;17.60;;
20324;SDS011;10320;49.482;11.256;2024-03-08T00:22:24;22.23;;;16.10;;
20324;SDS011;10320;49.482;11.256;2024-03-08T00:24:50;23.90;;;16.03;;
20324;SDS011;10320;49.482;11.256;2024-03-08T00:27:16;21.90;;;15.87;;
20324;SDS011;10320;49.482;11.256;2024-03-08T00:29:42;24.53;;;17.10;;
20324;SDS011;10320;49.482;11.256;2024-03-08T00:32:08;24.43;;;16.63;;
20324;SDS011;10320;49.482;11.256;2024-03-08T00:34:37;22.43;;;16.07;;
20324;SDS011;10320;49.482;11.256;2024-03-08T00:37:03;23.87;;;17.07;;
20324;SDS011;10320;49.482;11.256;2024-03-08T00:39:29;23.23;;;16.83;;
20324;SDS011;10320;49.482;11.256;2024-03-08T00:41:55;24.33;;;16.70;;
20324;SDS011;10320;49.482;11.256;2024-03-08T00:44:22;22.63;;;16.47;;
20324;SDS011;10320;49.482;11.256;2024-03-08T00:46:49;26.00;;;17.20;;
20324;SDS011;10320;49.482;11.256;2024-03-08T00:49:15;26.50;;;17.57;;
20324;SDS011;10320;49.482;11.256;2024-03-08T00:51:41;24.03;;;17.70;;
20324;SDS011;10320;49.482;11.256;2024-03-08T00:54:08;23.27;;;16.47;;
20324;SDS011;10320;49.482;11.256;2024-03-08T00:56:34;24.80;;;17.03;;
20324;SDS011;10320;49.482;11.256;2024-03-08T00:59:01;23.27;;;16.90;;
20324;SDS011;10320;49.482;11.256;2024-03-08T01:01:27;25.87;;;18.30;;
20324;SDS011;10320;49.482;11.256;2024-03-08T01:03:55;24.43;;;16.53;;
20324;SDS011;10320;49.482;11.256;2024-03-08T01:06:22;25.10;;;17.53;;
20324;SDS011;10320;49.482;11.256;2024-03-08T01:08:48;26.00;;;17.80;;
20324;SDS011;10320;49.482;11.256;2024-03-08T01:11:16;23.57;;;17.27;;
20324;SDS011;10320;49.482;11.256;2024-03-08T01:13:43;25.53;;;16.90;;
20324;SDS011;10320;49.482;11.256;2024-03-08T01:16:12;24.73;;;17.40;;
20324;SDS011;10320;49.482;11.256;2024-03-08T01:18:38;27.13;;;17.90;;
20324;SDS011;10320;49.482;11.256;2024-03-08T01:21:04;23.77;;;16.70;;
20324;SDS011;10320;49.482;11.256;2024-03-08T01:23:30;24.93;;;17.00;;
20324;SDS011;10320;49.482;11.256;2024-03-08T01:25:56;26.17;;;18.00;;
20324;SDS011;10320;49.482;11.256;2024-03-08T01:28:25;26.97;;;18.43;;
20324;SDS011;10320;49.482;11.256;2024-03-08T01:30:51;27.33;;;18.00;;
20324;SDS011;10320;49.482;11.256;2024-03-08T01:33:24;22.60;;;17.60;;
20324;SDS011;10320;49.482;11.256;2024-03-08T01:35:50;25.07;;;17.40;;
20324;SDS011;10320;49.482;11.256;2024-03-08T01:38:17;25.40;;;18.50;;
20324;SDS011;10320;49.482;11.256;2024-03-08T01:40:43;25.80;;;17.50;;
20324;SDS011;10320;49.482;11.256;2024-03-08T01:43:19;27.90;;;19.03;;
20324;SDS011;10320;49.482;11.256;2024-03-08T01:45:46;26.50;;;19.17;;
20324;SDS011;10320;49.482;11.256;2024-03-08T01:48:12;25.87;;;17.50;;
20324;SDS011;10320;49.482;11.256;2024-03-08T01:50:39;25.83;;;18.63;;
20324;SDS011;10320;49.482;11.256;2024-03-08T01:53:06;27.77;;;19.77;;
20324;SDS011;10320;49.482;11.256;2024-03-08T01:55:33;26.10;;;18.20;;
20324;SDS011;10320;49.482;11.256;2024-03-08T01:58:00;23.77;;;17.40;;
20324;SDS011;10320;49.482;11.256;2024-03-08T02:00:27;25.27;;;18.10;;
20324;SDS011;10320;49.482;11.256;2024-03-08T02:02:55;25.90;;;19.37;;
20324;SDS011;10320;49.482;11.256;2024-03-08T02:05:21;26.90;;;19.27;;
20324;SDS011;10320;49.482;11.256;2024-03-08T02:07:48;25.23;;;19.17;;
20324;SDS011;10320;49.482;11.256;2024-03-08T02:10:14;28.27;;;19.93;;
20324;SDS011;10320;49.482;11.256;2024-03-08T02:12:41;26.43;;;19.17;;
20324;SDS011;10320;49.482;11.256;2024-03-08T02:15:07;28.27;;;20.17;;
20324;SDS011;10320;49.482;11.256;2024-03-08T02:17:33;26.53;;;20.23;;
20324;SDS011;10320;49.482;11.256;2024-03-08T02:20:00;27.13;;;19.53;;
20324;SDS011;10320;49.482;11.256;2024-03-08T02:22:29;26.10;;;18.53;;
20324;SDS011;10320;49.482;11.256;2024-03-08T02:24:56;30.57;;;18.87;;
20324;SDS011;10320;49.482;11.256;2024-03-08T02:27:23;26.20;;;19.60;;
20324;SDS011;10320;49.482;11.256;2024-03-08T02:29:55;27.13;;;19.13;;
20324;SDS011;10320;49.482;11.256;2024-03-08T02:32:24;24.63;;;17.80;;
20324;SDS011;10320;49.482;11.256;2024-03-08T02:34:50;27.40;;;18.70;;
20324;SDS011;10320;49.482;11.256;2024-03-08T02:37:16;26.63;;;18.40;;
20324;SDS011;10320;49.482;11.256;2024-03-08T02:39:43;26.90;;;18.03;;
20324;SDS011;10320;49.482;11.256;2024-03-08T02:42:10;25.93;;;18.13;;
20324;SDS011;10320;49.482;11.256;2024-03-08T02:44:36;26.17;;;18.50;;
20324;SDS011;10320;49.482;11.256;2024-03-08T02:47:02;26.60;;;18.33;;
20324;SDS011;10320;49.482;11.256;2024-03-08T02:49:29;25.13;;;18.30;;
20324;SDS011;10320;49.482;11.256;2024-03-08T02:51:55;24.97;;;18.27;;
20324;SDS011;10320;49.482;11.256;2024-03-08T02:54:22;27.57;;;20.63;;
20324;SDS011;10320;49.482;11.256;2024-03-08T02:56:49;26.33;;;18.97;;
20324;SDS011;10320;49.482;11.256;2024-03-08T02:59:17;27.60;;;20.33;;
20324;SDS011;10320;49.482;11.256;2024-03-08T03:01:43;27.57;;;19.30;;
20324;SDS011;10320;49.482;11.256;2024-03-08T03:04:09;28.13;;;19.60;;
20324;SDS011;10320;49.482;11.256;2024-03-08T03:06:36;26.80;;;19.47;;
20324;SDS011;10320;49.482;11.256;2024-03-08T03:09:02;25.57;;;18.67;;
20324;SDS011;10320;49.482;11.256;2024-03-08T03:11:31;25.77;;;20.17;;
20324;SDS011;10320;49.482;11.256;2024-03-08T03:13:57;29.60;;;20.77;;
20324;SDS011;10320;49.482;11.256;2024-03-08T03:16:23;27.30;;;20.30;;
20324;SDS011;10320;49.482;11.256;2024-03-08T03:18:49;27.47;;;19.63;;
20324;SDS011;10320;49.482;11.256;2024-03-08T03:21:15;28.17;;;20.33;;
20324;SDS011;10320;49.482;11.256;2024-03-08T03:23:42;28.77;;;20.43;;
20324;SDS011;10320;49.482;11.256;2024-03-08T03:26:08;29.43;;;20.83;;
20324;SDS011;10320;49.482;11.256;2024-03-08T03:28:38;27.83;;;20.20;;
20324;SDS011;10320;49.482;11.256;2024-03-08T03:31:06;28.20;;;19.70;;
20324;SDS011;10320;49.482;11.256;2024-03-08T03:33:32;30.47;;;21.33;;
20324;SDS011;10320;49.482;11.256;2024-03-08T03:35:59;29.80;;;20.77;;
20324;SDS011;10320;49.482;11.256;2024-03-08T03:38:26;31.33;;;21.67;;
20324;SDS011;10320;49.482;11.256;2024-03-08T03:40:53;30.50;;;21.23;;
20324;SDS011;10320;49.482;11.256;2024-03-08T03:43:22;32.80;;;21.90;;
20324;SDS011;10320;49.482;11.256;2024-03-08T03:45:48;28.97;;;21.47;;
20324;SDS011;10320;49.482;11.256;2024-03-08T03:48:14;29.00;;;21.57;;
20324;SDS011;10320;49.482;11.256;2024-03-08T03:50:40;33.50;;;22.83;;
20324;SDS011;10320;49.482;11.256;2024-03-08T03:53:06;33.07;;;22.13;;
20324;SDS011;10320;49.482;11.256;2024-03-08T03:55:32;32.40;;;22.27;;
20324;SDS011;10320;49.482;11.256;2024-03-08T03:57:58;30.50;;;21.83;;
20324;SDS011;10320;49.482;11.256;2024-03-08T04:00:26;32.33;;;22.27;;
20324;SDS011;10320;49.482;11.256;2024-03-08T04:02:52;29.83;;;21.80;;
20324;SDS011;10320;49.482;11.256;2024-03-08T04:05:19;31.20;;;22.60;;
20324;SDS011;10320;49.482;11.256;2024-03-08T04:07:46;30.70;;;22.67;;
20324;SDS011;10320;49.482;11.256;2024-03-08T04:10:12;30.70;;;22.30;;
20324;SDS011;10320;49.482;11.256;2024-03-08T04:12:38;31.53;;;21.97;;
20324;SDS011;10320;49.482;11.256;2024-03-08T04:15:04;32.50;;;23.13;;
20324;SDS011;10320;49.482;11.256;2024-03-08T04:17:32;32.87;;;24.07;;
20324;SDS011;10320;49.482;11.256;2024-03-08T04:20:02;34.53;;;24.63;;
20324;SDS011;10320;49.482;11.256;2024-03-08T04:22:33;31.50;;;22.57;;
20324;SDS011;10320;49.482;11.256;2024-03-08T04:25:00;32.57;;;23.67;;
20324;SDS011;10320;49.482;11.256;2024-03-08T04:27:26;33.90;;;24.37;;
20324;SDS011;10320;49.482;11.256;2024-03-08T04:29:52;34.17;;;24.00;;
20324;SDS011;10320;49.482;11.256;2024-03-08T04:32:18;34.53;;;23.03;;
20324;SDS011;10320;49.482;11.256;2024-03-08T04:34:44;34.37;;;24.50;;
20324;SDS011;10320;49.482;11.256;2024-03-08T04:37:10;33.07;;;23.30;;
20324;SDS011;10320;49.482;11.256;2024-03-08T04:39:38;32.40;;;22.87;;
20324;SDS011;10320;49.482;11.256;2024-03-08T04:42:04;33.40;;;23.70;;
20324;SDS011;10320;49.482;11.256;2024-03-08T04:44:36;34.10;;;24.87;;
20324;SDS011;10320;49.482;11.256;2024-03-08T04:47:02;35.70;;;25.67;;
20324;SDS011;10320;49.482;11.256;2024-03-08T04:49:30;33.50;;;22.60;;
20324;SDS011;10320;49.482;11.256;2024-03-08T04:51:56;37.50;;;25.30;;
20324;SDS011;10320;49.482;11.256;2024-03-08T04:54:22;35.80;;;24.27;;
20324;SDS011;10320;49.482;11.256;2024-03-08T04:56:49;34.87;;;23.87;;
20324;SDS011;10320;49.482;11.256;2024-03-08T04:59:15;34.03;;;24.33;;
20324;SDS011;10320;49.482;11.256;2024-03-08T05:01:41;33.00;;;24.30;;
20324;SDS011;10320;49.482;11.256;2024-03-08T05:04:07;32.27;;;24.57;;
20324;SDS011;10320;49.482;11.256;2024-03-08T05:06:33;35.40;;;23.97;;
20324;SDS011;10320;49.482;11.256;2024-03-08T05:08:59;33.53;;;23.97;;
20324;SDS011;10320;49.482;11.256;2024-03-08T05:11:25;36.23;;;24.53;;
20324;SDS011;10320;49.482;11.256;2024-03-08T05:13:51;36.13;;;25.20;;
20324;SDS011;10320;49.482;11.256;2024-03-08T05:16:16;34.90;;;23.33;;
20324;SDS011;10320;49.482;11.256;2024-03-08T05:18:42;34.57;;;25.03;;
20324;SDS011;10320;49.482;11.256;2024-03-08T05:21:08;35.90;;;23.53;;
20324;SDS011;10320;49.482;11.256;2024-03-08T05:23:35;34.30;;;22.63;;
20324;SDS011;10320;49.482;11.256;2024-03-08T05:26:01;32.63;;;23.43;;
20324;SDS011;10320;49.482;11.256;2024-03-08T05:28:27;34.83;;;23.70;;
20324;SDS011;10320;49.482;11.256;2024-03-08T05:30:53;34.20;;;24.97;;
20324;SDS011;10320;49.482;11.256;2024-03-08T05:33:21;36.33;;;24.90;;
20324;SDS011;10320;49.482;11.256;2024-03-08T05:35:48;36.70;;;25.23;;
20324;SDS011;10320;49.482;11.256;2024-03-08T05:38:14;34.80;;;24.73;;
20324;SDS011;10320;49.482;11.256;2024-03-08T05:40:40;36.17;;;25.63;;
20324;SDS011;10320;49.482;11.256;2024-03-08T05:43:08;36.80;;;25.80;;
20324;SDS011;10320;49.482;11.256;2024-03-08T05:45:34;36.40;;;26.43;;
20324;SDS011;10320;49.482;11.256;2024-03-08T05:48:00;37.40;;;27.23;;
20324;SDS011;10320;49.482;11.256;2024-03-08T05:50:26;36.33;;;26.13;;
20324;SDS011;10320;49.482;11.256;2024-03-08T05:52:52;39.27;;;26.53;;
20324;SDS011;10320;49.482;11.256;2024-03-08T05:55:18;37.73;;;25.80;;
20324;SDS011;10320;49.482;11.256;2024-03-08T05:57:44;36.77;;;25.60;;
20324;SDS011;10320;49.482;11.256;2024-03-08T06:00:10;38.17;;;25.70;;
20324;SDS011;10320;49.482;11.256;2024-03-08T06:02:37;39.13;;;27.20;;
20324;SDS011;10320;49.482;11.256;2024-03-08T06:05:06;37.30;;;25.87;;
20324;SDS011;10320;49.482;11.256;2024-03-08T06:07:32;36.63;;;25.73;;
20324;SDS011;10320;49.482;11.256;2024-03-08T06:09:58;37.80;;;26.73;;
20324;SDS011;10320;49.482;11.256;2024-03-08T06:12:25;37.73;;;26.80;;
20324;SDS011;10320;49.482;11.256;2024-03-08T06:14:54;37.90;;;24.73;;
20324;SDS011;10320;49.482;11.256;2024-03-08T06:17:20;35.10;;;25.27;;
20324;SDS011;10320;49.482;11.256;2024-03-08T06:19:50;40.33;;;27.00;;
20324;SDS011;10320;49.482;11.256;2024-03-08T06:22:17;40.17;;;26.57;;
20324;SDS011;10320;49.482;11.256;2024-03-08T06:24:44;38.73;;;27.20;;
20324;SDS011;10320;49.482;11.256;2024-03-08T06:27:10;38.03;;;24.50;;
20324;SDS011;10320;49.482;11.256;2024-03-08T06:29:36;39.57;;;26.10;;
20324;SDS011;10320;49.482;11.256;2024-03-08T06:32:02;39.43;;;27.93;;
20324;SDS011;10320;49.482;11.256;2024-03-08T06:34:29;37.70;;;26.77;;
20324;SDS011;10320;49.482;11.256;2024-03-08T06:36:55;37.03;;;27.53;;
20324;SDS011;10320;49.482;11.256;2024-03-08T06:39:25;37.43;;;26.20;;
20324;SDS011;10320;49.482;11.256;2024-03-08T06:41:51;38.03;;;26.50;;
20324;SDS011;10320;49.482;11.256;2024-03-08T06:44:17;34.90;;;25.57;;
20324;SDS011;10320;49.482;11.256;2024-03-08T06:46:46;33.73;;;23.83;;
20324;SDS011;10320;49.482;11.256;2024-03-08T06:49:13;35.23;;;25.90;;
20324;SDS011;10320;49.482;11.256;2024-03-08T06:51:40;35.87;;;23.37;;
20324;SDS011;10320;49.482;11.256;2024-03-08T06:54:06;32.17;;;23.13;;
20324;SDS011;10320;49.482;11.256;2024-03-08T06:56:37;37.93;;;24.77;;
20324;SDS011;10320;49.482;11.256;2024-03-08T06:59:03;34.77;;;23.43;;
20324;SDS011;10320;49.482;11.256;2024-03-08T07:01:29;32.90;;;23.23;;
20324;SDS011;10320;49.482;11.256;2024-03-08T07:03:59;34.17;;;23.30;;
20324;SDS011;10320;49.482;11.256;2024-03-08T07:06:30;35.90;;;23.83;;
20324;SDS011;10320;49.482;11.256;2024-03-08T07:08:58;34.03;;;23.60;;
20324;SDS011;10320;49.482;11.256;2024-03-08T07:11:24;34.37;;;22.60;;
20324;SDS011;10320;49.482;11.256;2024-03-08T07:13:50;35.43;;;23.17;;
20324;SDS011;10320;49.482;11.256;2024-03-08T07:16:16;33.77;;;22.57;;
20324;SDS011;10320;49.482;11.256;2024-03-08T07:18:42;30.57;;;21.20;;
20324;SDS011;10320;49.482;11.256;2024-03-08T07:21:08;32.03;;;21.00;;
20324;SDS011;10320;49.482;11.256;2024-03-08T07:23:36;28.83;;;21.20;;
20324;SDS011;10320;49.482;11.256;2024-03-08T07:26:20;33.63;;;21.07;;
20324;SDS011;10320;49.482;11.256;2024-03-08T07:28:46;29.73;;;20.23;;
20324;SDS011;10320;49.482;11.256;2024-03-08T07:31:12;31.43;;;20.07;;
20324;SDS011;10320;49.482;11.256;2024-03-08T07:33:48;29.97;;;19.43;;
20324;SDS011;10320;49.482;11.256;2024-03-08T07:36:15;31.23;;;21.23;;
20324;SDS011;10320;49.482;11.256;2024-03-08T07:38:41;33.33;;;20.93;;
20324;SDS011;10320;49.482;11.256;2024-03-08T07:41:07;30.40;;;19.83;;
20324;SDS011;10320;49.482;11.256;2024-03-08T07:43:33;28.20;;;19.73;;
20324;SDS011;10320;49.482;11.256;2024-03-08T07:45:59;28.37;;;20.23;;
20324;SDS011;10320;49.482;11.256;2024-03-08T07:48:25;28.43;;;20.53;;
20324;SDS011;10320;49.482;11.256;2024-03-08T07:50:52;27.53;;;19.57;;
20324;SDS011;10320;49.482;11.256;2024-03-08T07:53:18;25.80;;;17.70;;
20324;SDS011;10320;49.482;11.256;2024-03-08T07:55:44;27.93;;;18.87;;
20324;SDS011;10320;49.482;11.256;2024-03-08T07:58:10;26.43;;;19.53;;
20324;SDS011;10320;49.482;11.256;2024-03-08T08:00:36;29.10;;;19.33;;
20324;SDS011;10320;49.482;11.256;2024-03-08T08:03:02;26.60;;;18.50;;
20324;SDS011;10320;49.482;11.256;2024-03-08T08:05:29;27.87;;;18.37;;
20324;SDS011;10320;49.482;11.256;2024-03-08T08:08:00;25.90;;;17.90;;
20324;SDS011;10320;49.482;11.256;2024-03-08T08:10:28;26.87;;;19.63;;
20324;SDS011;10320;49.482;11.256;2024-03-08T08:12:54;27.27;;;18.97;;
20324;SDS011;10320;49.482;11.256;2024-03-08T08:15:22;24.23;;;17.27;;
20324;SDS011;10320;49.482;11.256;2024-03-08T08:17:48;27.17;;;18.47;;
20324;SDS011;10320;49.482;11.256;2024-03-08T08:20:14;30.03;;;21.07;;
20324;SDS011;10320;49.482;11.256;2024-03-08T08:22:40;23.37;;;17.00;;
20324;SDS011;10320;49.482;11.256;2024-03-08T08:25:06;26.60;;;18.77;;
20324;SDS011;10320;49.482;11.256;2024-03-08T08:27:33;28.03;;;19.37;;
20324;SDS011;10320;49.482;11.256;2024-03-08T08:29:59;27.03;;;17.60;;
20324;SDS011;10320;49.482;11.256;2024-03-08T08:32:25;24.97;;;16.97;;
20324;SDS011;10320;49.482;11.256;2024-03-08T08:34:51;26.60;;;17.30;;
20324;SDS011;10320;49.482;11.256;2024-03-08T08:37:17;21.60;;;15.97;;
20324;SDS011;10320;49.482;11.256;2024-03-08T08:39:43;24.27;;;16.40;;
20324;SDS011;10320;49.482;11.256;2024-03-08T08:42:09;21.50;;;16.87;;
20324;SDS011;10320;49.482;11.256;2024-03-08T08:44:36;21.20;;;15.90;;
20324;SDS011;10320;49.482;11.256;2024-03-08T08:47:02;23.03;;;15.17;;
20324;SDS011;10320;49.482;11.256;2024-03-08T08:49:31;18.73;;;14.07;;
20324;SDS011;10320;49.482;11.256;2024-03-08T08:51:56;23.03;;;15.37;;
20324;SDS011;10320;49.482;11.256;2024-03-08T08:54:23;22.10;;;14.87;;
20324;SDS011;10320;49.482;11.256;2024-03-08T08:56:50;21.73;;;14.97;;
20324;SDS011;10320;49.482;11.256;2024-03-08T08:59:16;20.33;;;14.93;;
20324;SDS011;10320;49.482;11.256;2024-03-08T09:01:45;22.63;;;15.67;;
20324;SDS011;10320;49.482;11.256;2024-03-08T09:04:15;20.20;;;15.00;;
20324;SDS011;10320;49.482;11.256;2024-03-08T09:06:41;22.03;;;14.73;;
20324;SDS011;10320;49.482;11.256;2024-03-08T09:09:07;20.07;;;13.73;;
20324;SDS011;10320;49.482;11.256;2024-03-08T09:11:34;20.37;;;14.10;;
20324;SDS011;10320;49.482;11.256;2024-03-08T09:14:00;21.80;;;14.97;;
20324;SDS011;10320;49.482;11.256;2024-03-08T09:16:27;21.10;;;14.37;;
20324;SDS011;10320;49.482;11.256;2024-03-08T09:18:53;21.07;;;14.70;;
20324;SDS011;10320;49.482;11.256;2024-03-08T09:21:19;17.93;;;13.93;;
20324;SDS011;10320;49.482;11.256;2024-03-08T09:23:45;18.50;;;12.87;;
20324;SDS011;10320;49.482;11.256;2024-03-08T09:26:11;18.93;;;13.60;;
20324;SDS011;10320;49.482;11.256;2024-03-08T09:28:37;19.27;;;13.50;;
20324;SDS011;10320;49.482;11.256;2024-03-08T09:31:04;18.73;;;12.77;;
20324;SDS011;10320;49.482;11.256;2024-03-08T09:33:30;18.60;;;13.20;;
20324;SDS011;10320;49.482;11.256;2024-03-08T09:35:56;18.07;;;12.63;;
20324;SDS011;10320;49.482;11.256;2024-03-08T09:38:23;18.13;;;12.67;;
20324;SDS011;10320;49.482;11.256;2024-03-08T09:40:50;16.77;;;12.03;;
20324;SDS011;10320;49.482;11.256;2024-03-08T09:43:16;17.27;;;12.70;;
20324;SDS011;10320;49.482;11.256;2024-03-08T09:45:43;16.47;;;12.23;;
20324;SDS011;10320;49.482;11.256;2024-03-08T09:48:11;16.83;;;11.67;;
20324;SDS011;10320;49.482;11.256;2024-03-08T09:50:39;18.20;;;12.60;;
20324;SDS011;10320;49.482;11.256;2024-03-08T09:53:06;18.00;;;12.60;;
20324;SDS011;10320;49.482;11.256;2024-03-08T09:55:38;15.93;;;11.83;;
20324;SDS011;10320;49.482;11.256;2024-03-08T09:58:07;14.13;;;10.80;;
20324;SDS011;10320;49.482;11.256;2024-03-08T10:00:54;14.97;;;11.90;;
20324;SDS011;10320;49.482;11.256;2024-03-08T10:03:23;16.10;;;12.00;;
20324;SDS011;10320;49.482;11.256;2024-03-08T10:05:52;15.10;;;11.63;;
20324;SDS011;10320;49.482;11.256;2024-03-08T10:08:25;14.73;;;11.30;;
20324;SDS011;10320;49.482;11.256;2024-03-08T10:10:52;15.57;;;11.40;;
20324;SDS011;10320;49.482;11.256;2024-03-08T10:13:18;15.03;;;11.27;;
20324;SDS011;10320;49.482;11.256;2024-03-08T10:15:45;17.53;;;12.23;;
20324;SDS011;10320;49.482;11.256;2024-03-08T10:18:11;15.70;;;11.30;;
20324;SDS011;10320;49.482;11.256;2024-03-08T10:20:37;16.17;;;11.73;;
20324;SDS011;10320;49.482;11.256;2024-03-08T10:23:04;15.07;;;10.47;;
20324;SDS011;10320;49.482;11.256;2024-03-08T10:25:33;14.40;;;11.33;;
20324;SDS011;10320;49.482;11.256;2024-03-08T10:27:59;15.23;;;11.13;;
20324;SDS011;10320;49.482;11.256;2024-03-08T10:30:25;13.77;;;10.13;;
20324;SDS011;10320;49.482;11.256;2024-03-08T10:32:51;12.83;;;10.07;;
20324;SDS011;10320;49.482;11.256;2024-03-08T10:35:17;12.23;;;9.20;;
20324;SDS011;10320;49.482;11.256;2024-03-08T10:40:09;12.07;;;9.13;;
20324;SDS011;10320;49.482;11.256;2024-03-08T10:42:40;11.83;;;8.97;;
20324;SDS011;10320;49.482;11.256;2024-03-08T10:47:55;12.37;;;9.17;;
20324;SDS011;10320;49.482;11.256;2024-03-08T10:50:24;11.57;;;9.03;;
20324;SDS011;10320;49.482;11.256;2024-03-08T10:52:51;11.30;;;8.50;;
20324;SDS011;10320;49.482;11.256;2024-03-08T10:55:18;12.53;;;9.23;;
20324;SDS011;10320;49.482;11.256;2024-03-08T10:57:47;11.93;;;8.73;;
20324;SDS011;10320;49.482;11.256;2024-03-08T11:00:13;10.23;;;8.00;;
20324;SDS011;10320;49.482;11.256;2024-03-08T11:02:44;10.50;;;8.70;;
20324;SDS011;10320;49.482;11.256;2024-03-08T11:05:10;10.10;;;7.77;;
20324;SDS011;10320;49.482;11.256;2024-03-08T11:07:40;12.13;;;8.77;;
20324;SDS011;10320;49.482;11.256;2024-03-08T11:10:07;11.47;;;8.80;;
20324;SDS011;10320;49.482;11.256;2024-03-08T11:12:38;10.73;;;8.00;;
20324;SDS011;10320;49.482;11.256;2024-03-08T11:15:11;9.97;;;7.43;;
20324;SDS011;10320;49.482;11.256;2024-03-08T11:17:44;11.63;;;7.37;;
20324;SDS011;10320;49.482;11.256;2024-03-08T11:22:55;10.23;;;7.57;;
20324;SDS011;10320;49.482;11.256;2024-03-08T11:25:36;12.03;;;8.27;;
20324;SDS011;10320;49.482;11.256;2024-03-08T11:30:42;8.50;;;6.57;;
20324;SDS011;10320;49.482;11.256;2024-03-08T11:33:12;8.50;;;6.97;;
20324;SDS011;10320;49.482;11.256;2024-03-08T11:35:38;10.43;;;7.17;;
20324;SDS011;10320;49.482;11.256;2024-03-08T11:38:07;8.50;;;7.27;;
20324;SDS011;10320;49.482;11.256;2024-03-08T11:40:33;8.07;;;6.77;;
20324;SDS011;10320;49.482;11.256;2024-03-08T11:43:00;8.80;;;6.80;;
20324;SDS011;10320;49.482;11.256;2024-03-08T11:45:29;11.20;;;8.10;;
20324;SDS011;10320;49.482;11.256;2024-03-08T11:47:55;10.67;;;7.70;;
20324;SDS011;10320;49.482;11.256;2024-03-08T11:50:21;9.43;;;6.97;;
20324;SDS011;10320;49.482;11.256;2024-03-08T11:52:48;11.80;;;7.63;;
20324;SDS011;10320;49.482;11.256;2024-03-08T11:55:15;10.83;;;8.50;;
20324;SDS011;10320;49.482;11.256;2024-03-08T11:57:41;12.03;;;9.00;;
20324;SDS011;10320;49.482;11.256;2024-03-08T12:00:14;14.90;;;10.47;;
20324;SDS011;10320;49.482;11.256;2024-03-08T12:02:46;13.17;;;9.93;;
20324;SDS011;10320;49.482;11.256;2024-03-08T12:05:15;12.23;;;9.70;;
20324;SDS011;10320;49.482;11.256;2024-03-08T12:07:41;13.07;;;9.57;;
20324;SDS011;10320;49.482;11.256;2024-03-08T12:10:17;11.43;;;9.27;;
20324;SDS011;10320;49.482;11.256;2024-03-08T12:12:44;12.33;;;9.23;;
20324;SDS011;10320;49.482;11.256;2024-03-08T12:15:11;14.13;;;10.23;;
20324;SDS011;10320;49.482;11.256;2024-03-08T12:17:38;13.87;;;9.87;;
20324;SDS011;10320;49.482;11.256;2024-03-08T12:20:11;12.13;;;9.17;;
20324;SDS011;10320;49.482;11.256;2024-03-08T12:22:40;14.93;;;9.63;;
20324;SDS011;10320;49.482;11.256;2024-03-08T12:25:06;12.30;;;9.87;;
20324;SDS011;10320;49.482;11.256;2024-03-08T12:27:35;13.27;;;9.50;;
20324;SDS011;10320;49.482;11.256;2024-03-08T12:30:23;12.43;;;9.13;;
20324;SDS011;10320;49.482;11.256;2024-03-08T12:32:50;14.70;;;9.93;;
20324;SDS011;10320;49.482;11.256;2024-03-08T12:35:18;12.13;;;9.10;;
20324;SDS011;10320;49.482;11.256;2024-03-08T12:37:48;11.83;;;9.27;;
20324;SDS011;10320;49.482;11.256;2024-03-08T12:40:14;12.53;;;9.60;;
20324;SDS011;10320;49.482;11.256;2024-03-08T12:42:42;13.30;;;8.87;;
20324;SDS011;10320;49.482;11.256;2024-03-08T12:45:08;11.77;;;8.97;;
20324;SDS011;10320;49.482;11.256;2024-03-08T12:47:35;13.10;;;9.57;;
20324;SDS011;10320;49.482;11.256;2024-03-08T12:50:02;11.63;;;8.87;;
20324;SDS011;10320;49.482;11.256;2024-03-08T12:52:28;11.53;;;8.90;;
20324;SDS011;10320;49.482;11.256;2024-03-08T12:54:55;12.10;;;9.60;;
20324;SDS011;10320;49.482;11.256;2024-03-08T12:57:21;12.03;;;8.70;;
20324;SDS011;10320;49.482;11.256;2024-03-08T12:59:47;13.60;;;8.40;;
20324;SDS011;10320;49.482;11.256;2024-03-08T13:02:14;12.30;;;8.90;;
20324;SDS011;10320;49.482;11.256;2024-03-08T13:04:41;11.07;;;8.40;;
20324;SDS011;10320;49.482;11.256;2024-03-08T13:07:07;11.20;;;8.30;;
20324;SDS011;10320;49.482;11.256;2024-03-08T13:09:33;11.17;;;8.43;;
20324;SDS011;10320;49.482;11.256;2024-03-08T13:12:02;10.97;;;8.57;;
20324;SDS011;10320;49.482;11.256;2024-03-08T13:14:28;11.33;;;8.70;;
20324;SDS011;10320;49.482;11.256;2024-03-08T13:16:57;11.83;;;8.53;;
20324;SDS011;10320;49.482;11.256;2024-03-08T13:19:24;11.10;;;8.60;;
20324;SDS011;10320;49.482;11.256;2024-03-08T13:21:53;11.40;;;8.13;;
20324;SDS011;10320;49.482;11.256;2024-03-08T13:24:19;10.93;;;8.23;;
20324;SDS011;10320;49.482;11.256;2024-03-08T13:26:45;10.93;;;7.63;;
20324;SDS011;10320;49.482;11.256;2024-03-08T13:29:11;10.33;;;7.87;;
20324;SDS011;10320;49.482;11.256;2024-03-08T13:31:39;10.37;;;7.50;;
20324;SDS011;10320;49.482;11.256;2024-03-08T13:34:05;9.43;;;7.00;;
20324;SDS011;10320;49.482;11.256;2024-03-08T13:36:31;9.70;;;7.83;;
20324;SDS011;10320;49.482;11.256;2024-03-08T13:39:04;9.60;;;7.70;;
20324;SDS011;10320;49.482;11.256;2024-03-08T13:41:40;11.23;;;7.67;;
20324;SDS011;10320;49.482;11.256;2024-03-08T13:44:06;8.60;;;7.23;;
20324;SDS011;10320;49.482;11.256;2024-03-08T13:46:32;12.47;;;8.17;;
20324;SDS011;10320;49.482;11.256;2024-03-08T13:49:04;10.13;;;7.70;;
20324;SDS011;10320;49.482;11.256;2024-03-08T13:51:34;9.13;;;7.07;;
20324;SDS011;10320;49.482;11.256;2024-03-08T13:54:00;8.47;;;6.90;;
20324;SDS011;10320;49.482;11.256;2024-03-08T13:56:27;9.73;;;7.73;;
20324;SDS011;10320;49.482;11.256;2024-03-08T13:58:56;11.27;;;8.17;;
20324;SDS011;10320;49.482;11.256;2024-03-08T14:01:22;8.97;;;7.03;;
20324;SDS011;10320;49.482;11.256;2024-03-08T14:03:48;10.37;;;7.43;;
20324;SDS011;10320;49.482;11.256;2024-03-08T14:06:14;10.03;;;7.30;;
20324;SDS011;10320;49.482;11.256;2024-03-08T14:08:40;10.13;;;7.40;;
20324;SDS011;10320;49.482;11.256;2024-03-08T14:11:06;9.37;;;7.53;;
20324;SDS011;10320;49.482;11.256;2024-03-08T14:13:42;8.97;;;7.20;;
20324;SDS011;10320;49.482;11.256;2024-03-08T14:16:10;11.20;;;7.87;;
20324;SDS011;10320;49.482;11.256;2024-03-08T14:18:36;9.57;;;7.37;;
20324;SDS011;10320;49.482;11.256;2024-03-08T14:21:02;10.33;;;7.70;;
20324;SDS011;10320;49.482;11.256;2024-03-08T14:23:29;10.30;;;6.93;;